createdAt,value
2022-11-05T00:00:41.082Z,101644.47
2022-11-05T00:03:27.427Z,101655.34
2022-11-05T00:06:12.761Z,101649.06
2022-11-05T00:08:59.762Z,101641.19
2022-11-05T00:11:46.950Z,101643.69
2022-11-05T00:14:32.780Z,101643.41
2022-11-05T00:16:59.828Z,101638.38
2022-11-05T00:19:26.650Z,101642.22
2022-11-05T00:22:12.092Z,101648.13
2022-11-05T00:24:57.635Z,101659.47
2022-11-05T00:27:24.525Z,101660.16
2022-11-05T00:29:51.488Z,101667.66
2022-11-05T00:32:18.279Z,101668.31
2022-11-05T00:34:45.138Z,101671.63
2022-11-05T00:37:11.952Z,101676.75
2022-11-05T00:39:38.814Z,101674.06
2022-11-05T00:42:24.140Z,101672.19
2022-11-05T00:45:02.880Z,101677.03
2022-11-05T00:47:49.632Z,101677.72
2022-11-05T00:50:17.222Z,101681.00
2022-11-05T00:52:56.084Z,101690.03
2022-11-05T00:55:41.163Z,101701.19
2022-11-05T00:58:14.010Z,101701.19
2022-11-05T01:00:43.458Z,101697.59
2022-11-05T01:03:13.496Z,101701.19
2022-11-05T01:05:52.080Z,101701.19
2022-11-05T01:08:20.832Z,101713.59
2022-11-05T01:10:53.382Z,101705.50
2022-11-05T01:13:22.477Z,101708.09
2022-11-05T01:15:51.141Z,101712.97
2022-11-05T01:18:19.391Z,101704.63
2022-11-05T01:20:47.123Z,101713.41
2022-11-05T01:23:14.266Z,101724.56
2022-11-05T01:25:43.291Z,101710.25
2022-11-05T01:28:10.756Z,101715.94
2022-11-05T01:30:38.259Z,101714.00
2022-11-05T01:33:05.488Z,101711.88
2022-11-05T01:35:32.915Z,101712.59
2022-11-05T01:38:00.001Z,101713.03
2022-11-05T01:40:26.903Z,101716.63
2022-11-05T01:42:53.794Z,101718.09
2022-11-05T01:45:29.943Z,101726.69
2022-11-05T01:48:14.363Z,101722.72
2022-11-05T01:50:47.641Z,101725.56
2022-11-05T01:53:30.972Z,101723.97
2022-11-05T01:56:07.715Z,101727.59
2022-11-05T01:58:41.924Z,101718.69
2022-11-05T02:01:08.922Z,101716.34
2022-11-05T02:03:36.393Z,101714.75
2022-11-05T02:06:04.431Z,101708.78
2022-11-05T02:08:54.286Z,101710.38
2022-11-05T02:11:21.332Z,101698.41
2022-11-05T02:13:49.264Z,101709.81
2022-11-05T02:16:24.916Z,101702.25
2022-11-05T02:19:14.709Z,101696.50
2022-11-05T02:22:07.867Z,101699.09
2022-11-05T02:24:47.830Z,101700.09
2022-11-05T02:27:36.690Z,101691.78
2022-11-05T02:30:26.350Z,101699.09
2022-11-05T02:33:13.426Z,101694.16
2022-11-05T02:36:02.334Z,101693.38
2022-11-05T02:38:57.206Z,101703.16
2022-11-05T02:41:51.016Z,101702.59
2022-11-05T02:44:46.531Z,101700.25
2022-11-05T02:47:17.989Z,101697.88
2022-11-05T02:49:54.259Z,101699.91
2022-11-05T02:52:37.070Z,101702.50
2022-11-05T02:55:23.946Z,101692.59
2022-11-05T02:57:50.925Z,101688.19
2022-11-05T03:00:56.607Z,101690.00
2022-11-05T03:03:28.854Z,101691.56
2022-11-05T03:06:37.599Z,101693.59
2022-11-05T03:09:31.115Z,101690.44
2022-11-05T03:12:19.104Z,101690.34
2022-11-05T03:14:46.042Z,101695.97
2022-11-05T03:17:33.802Z,101691.47
2022-11-05T03:20:10.738Z,101702.50
2022-11-05T03:23:01.380Z,101694.16
2022-11-05T03:25:31.739Z,101698.22
2022-11-05T03:28:03.985Z,101702.28
2022-11-05T03:30:33.890Z,101700.16
2022-11-05T03:33:06.677Z,101703.19
2022-11-05T03:35:40.480Z,101705.19
2022-11-05T03:38:12.854Z,101709.59
2022-11-05T03:40:42.750Z,101713.53
2022-11-05T03:43:09.987Z,101717.16
2022-11-05T03:46:01.142Z,101703.63
2022-11-05T03:48:30.971Z,101707.22
2022-11-05T03:51:07.357Z,101705.66
2022-11-05T03:53:43.753Z,101708.47
2022-11-05T03:56:22.278Z,101711.28
2022-11-05T03:58:53.378Z,101713.31
2022-11-05T04:01:24.086Z,101717.13
2022-11-05T04:03:51.050Z,101722.09
2022-11-05T04:06:36.473Z,101720.06
2022-11-05T04:09:21.944Z,101728.41
2022-11-05T04:12:07.336Z,101722.88
2022-11-05T04:14:34.139Z,101734.00
2022-11-05T04:17:06.822Z,101723.66
2022-11-05T04:19:53.675Z,101719.25
2022-11-05T04:22:39.877Z,101722.88
2022-11-05T04:25:07.054Z,101725.25
2022-11-05T04:27:34.224Z,101726.59
2022-11-05T04:30:19.720Z,101730.53
2022-11-05T04:32:59.956Z,101735.06
2022-11-05T04:35:30.133Z,101726.63
2022-11-05T04:37:57.039Z,101731.66
2022-11-05T04:40:24.338Z,101726.28
2022-11-05T04:42:51.262Z,101726.06
2022-11-05T04:45:18.059Z,101720.06
2022-11-05T04:47:44.898Z,101728.41
2022-11-05T04:50:13.311Z,101729.44
2022-11-05T04:52:40.839Z,101735.72
2022-11-05T04:55:08.233Z,101745.09
2022-11-05T04:57:35.163Z,101736.28
2022-11-05T05:00:02.480Z,101743.84
2022-11-05T05:02:29.379Z,101742.59
2022-11-05T05:04:56.249Z,101742.16
2022-11-05T05:07:23.121Z,101740.91
2022-11-05T05:09:50.269Z,101742.03
2022-11-05T05:12:17.255Z,101735.28
2022-11-05T05:14:43.993Z,101736.06
2022-11-05T05:17:10.788Z,101736.41
2022-11-05T05:19:57.662Z,101743.50
2022-11-05T05:22:24.494Z,101743.38
2022-11-05T05:24:52.883Z,101751.28
2022-11-05T05:27:20.907Z,101746.41
2022-11-05T05:29:47.652Z,101735.59
2022-11-05T05:32:14.673Z,101739.19
2022-11-05T05:34:41.518Z,101729.84
2022-11-05T05:37:08.476Z,101728.72
2022-11-05T05:39:35.332Z,101738.53
2022-11-05T05:42:02.256Z,101739.78
2022-11-05T05:44:29.045Z,101755.00
2022-11-05T05:46:55.907Z,101747.88
2022-11-05T05:49:22.787Z,101748.13
2022-11-05T05:51:49.933Z,101756.34
2022-11-05T05:54:16.935Z,101758.59
2022-11-05T05:56:44.537Z,101757.81
2022-11-05T05:59:12.334Z,101753.09
2022-11-05T06:01:39.342Z,101756.47
2022-11-05T06:04:06.431Z,101761.09
2022-11-05T06:06:33.497Z,101774.81
2022-11-05T06:09:00.397Z,101770.09
2022-11-05T06:11:27.469Z,101772.13
2022-11-05T06:13:54.419Z,101776.50
2022-11-05T06:16:21.430Z,101774.16
2022-11-05T06:18:48.395Z,101767.59
2022-11-05T06:21:17.402Z,101769.06
2022-11-05T06:23:45.759Z,101779.63
2022-11-05T06:26:16.025Z,101777.03
2022-11-05T06:28:43.378Z,101788.44
2022-11-05T06:31:11.432Z,101780.09
2022-11-05T06:33:38.498Z,101782.22
2022-11-05T06:36:07.231Z,101778.84
2022-11-05T06:38:36.111Z,101780.19
2022-11-05T06:41:09.839Z,101772.22
2022-11-05T06:43:37.615Z,101779.34
2022-11-05T06:46:05.083Z,101780.22
2022-11-05T06:48:32.113Z,101782.16
2022-11-05T06:50:58.915Z,101784.84
2022-11-05T06:53:26.303Z,101787.00
2022-11-05T06:55:53.164Z,101786.53
2022-11-05T06:58:20.322Z,101795.69
2022-11-05T07:00:48.277Z,101796.47
2022-11-05T07:03:15.388Z,101790.03
2022-11-05T07:05:48.795Z,101795.00
2022-11-05T07:08:16.047Z,101802.75
2022-11-05T07:10:43.000Z,101801.72
2022-11-05T07:13:10.051Z,101811.09
2022-11-05T07:15:37.779Z,101809.28
2022-11-05T07:18:05.407Z,101805.13
2022-11-05T07:20:34.422Z,101816.84
2022-11-05T07:23:11.519Z,101812.22
2022-11-05T07:25:39.224Z,101813.34
2022-11-05T07:28:06.809Z,101807.69
2022-11-05T07:30:35.001Z,101801.28
2022-11-05T07:33:02.740Z,101808.38
2022-11-05T07:35:30.203Z,101810.28
2022-11-05T07:37:57.125Z,101817.41
2022-11-05T07:40:26.811Z,101815.69
2022-11-05T07:42:59.381Z,101816.59
2022-11-05T07:45:28.749Z,101815.13
2022-11-05T07:47:58.665Z,101817.81
2022-11-05T07:50:28.690Z,101823.34
2022-11-05T07:53:03.890Z,101824.91
2022-11-05T07:55:31.022Z,101825.81
2022-11-05T07:57:58.204Z,101833.13
2022-11-05T08:00:26.763Z,101827.50
2022-11-05T08:03:02.194Z,101832.00
2022-11-05T08:05:37.258Z,101826.59
2022-11-05T08:08:05.196Z,101827.16
2022-11-05T08:10:34.268Z,101830.06
2022-11-05T08:13:01.877Z,101823.63
2022-11-05T08:15:29.277Z,101816.19
2022-11-05T08:18:03.962Z,101823.50
2022-11-05T08:20:31.232Z,101825.41
2022-11-05T08:22:58.381Z,101823.94
2022-11-05T08:25:26.116Z,101821.19
2022-11-05T08:27:58.549Z,101823.06
2022-11-05T08:30:26.291Z,101821.59
2022-11-05T08:32:58.539Z,101828.94
2022-11-05T08:35:26.830Z,101825.63
2022-11-05T08:38:02.988Z,101822.09
2022-11-05T08:40:34.891Z,101821.97
2022-11-05T08:43:04.328Z,101824.09
2022-11-05T08:45:31.588Z,101830.88
2022-11-05T08:48:03.623Z,101831.97
2022-11-05T08:50:31.067Z,101831.50
2022-11-05T08:52:58.373Z,101831.03
2022-11-05T08:55:25.882Z,101830.56
2022-11-05T08:58:01.379Z,101824.19
2022-11-05T09:00:31.005Z,101833.09
2022-11-05T09:03:02.898Z,101840.66
2022-11-05T09:05:31.954Z,101842.06
2022-11-05T09:08:01.427Z,101838.75
2022-11-05T09:10:29.039Z,101834.66
2022-11-05T09:12:56.460Z,101832.16
2022-11-05T09:15:24.702Z,101828.84
2022-11-05T09:17:52.073Z,101829.69
2022-11-05T09:20:19.729Z,101828.19
2022-11-05T09:22:46.900Z,101829.28
2022-11-05T09:25:16.280Z,101833.00
2022-11-05T09:27:43.720Z,101826.59
2022-11-05T09:30:12.807Z,101825.38
2022-11-05T09:32:39.867Z,101830.66
2022-11-05T09:35:07.781Z,101836.00
2022-11-05T09:37:36.114Z,101832.44
2022-11-05T09:40:03.707Z,101835.94
2022-11-05T09:42:38.143Z,101831.66
2022-11-05T09:45:13.779Z,101838.84
2022-11-05T09:47:45.215Z,101841.28
2022-11-05T09:50:19.641Z,101837.16
2022-11-05T09:52:46.755Z,101844.53
2022-11-05T09:55:29.325Z,101836.28
2022-11-05T09:58:10.938Z,101847.34
2022-11-05T10:00:38.097Z,101854.72
2022-11-05T10:03:10.854Z,101854.28
2022-11-05T10:05:40.522Z,101851.72
2022-11-05T10:08:29.645Z,101852.53
2022-11-05T10:11:04.375Z,101853.44
2022-11-05T10:13:37.391Z,101851.50
2022-11-05T10:16:19.259Z,101856.31
2022-11-05T10:18:51.221Z,101853.28
2022-11-05T10:21:37.635Z,101854.38
2022-11-05T10:24:15.817Z,101863.06
2022-11-05T10:26:46.885Z,101863.88
2022-11-05T10:29:29.714Z,101868.66
2022-11-05T10:31:58.764Z,101860.81
2022-11-05T10:34:31.024Z,101866.06
2022-11-05T10:36:58.123Z,101864.25
2022-11-05T10:39:27.948Z,101865.81
2022-11-05T10:42:31.443Z,101863.75
2022-11-05T10:45:35.374Z,101860.34
2022-11-05T10:48:32.502Z,101865.34
2022-11-05T10:50:59.787Z,101855.16
2022-11-05T10:53:33.768Z,101865.88
2022-11-05T10:56:00.907Z,101856.75
2022-11-05T10:58:35.083Z,101862.22
2022-11-05T11:01:10.836Z,101862.75
2022-11-05T11:03:45.939Z,101864.59
2022-11-05T11:06:21.984Z,101866.66
2022-11-05T11:08:50.632Z,101869.81
2022-11-05T11:11:39.600Z,101871.88
2022-11-05T11:14:12.528Z,101875.53
2022-11-05T11:16:45.935Z,101868.75
2022-11-05T11:19:34.052Z,101873.19
2022-11-05T11:22:04.294Z,101860.13
2022-11-05T11:24:41.988Z,101865.09
2022-11-05T11:27:13.997Z,101866.69
2022-11-05T11:29:49.178Z,101865.16
2022-11-05T11:32:20.349Z,101864.66
2022-11-05T11:34:52.456Z,101858.38
2022-11-05T11:37:28.765Z,101867.78
2022-11-05T11:40:04.592Z,101867.53
2022-11-05T11:42:35.209Z,101870.97
2022-11-05T11:45:15.315Z,101868.59
2022-11-05T11:47:48.726Z,101862.06
2022-11-05T11:50:39.975Z,101860.25
2022-11-05T11:53:26.414Z,101863.09
2022-11-05T11:56:07.533Z,101854.75
2022-11-05T11:58:40.829Z,101859.72
2022-11-05T12:01:41.845Z,101850.31
2022-11-05T12:04:46.094Z,101855.25
2022-11-05T12:07:31.197Z,101846.16
2022-11-05T12:10:04.632Z,101843.25
2022-11-05T12:13:02.398Z,101847.94
2022-11-05T12:15:55.906Z,101845.63
2022-11-05T12:18:47.407Z,101850.06
2022-11-05T12:21:58.405Z,101848.50
2022-11-05T12:24:47.432Z,101850.31
2022-11-05T12:27:51.603Z,101850.03
2022-11-05T12:30:21.644Z,101841.91
2022-11-05T12:33:15.733Z,101838.19
2022-11-05T12:36:06.297Z,101835.72
2022-11-05T12:39:19.508Z,101832.00
2022-11-05T12:42:14.794Z,101830.16
2022-11-05T12:45:02.852Z,101829.97
2022-11-05T12:47:50.083Z,101828.44
2022-11-05T12:50:49.255Z,101832.69
2022-11-05T12:53:53.508Z,101826.41
2022-11-05T12:56:38.217Z,101826.19
2022-11-05T12:59:43.890Z,101830.66
2022-11-05T13:02:20.682Z,101830.66
2022-11-05T13:04:55.615Z,101816.00
2022-11-05T13:07:36.198Z,101813.13
2022-11-05T13:10:14.988Z,101816.28
2022-11-05T13:12:44.299Z,101818.63
2022-11-05T13:15:32.927Z,101810.78
2022-11-05T13:18:06.073Z,101799.75
2022-11-05T13:20:37.838Z,101806.56
2022-11-05T13:23:24.362Z,101793.22
2022-11-05T13:25:56.190Z,101785.09
2022-11-05T13:28:44.210Z,101780.13
2022-11-05T13:31:16.331Z,101782.50
2022-11-05T13:33:46.318Z,101762.63
2022-11-05T13:36:49.843Z,101764.72
2022-11-05T13:39:28.582Z,101761.81
2022-11-05T13:42:23.254Z,101772.25
2022-11-05T13:45:15.502Z,101775.13
2022-11-05T13:47:54.426Z,101775.91
2022-11-05T13:51:06.545Z,101773.31
2022-11-05T13:53:54.573Z,101767.84
2022-11-05T13:56:55.637Z,101768.06
2022-11-05T13:59:59.206Z,101761.28
2022-11-05T14:02:35.040Z,101758.97
2022-11-05T14:05:03.395Z,101778.31
2022-11-05T14:07:47.331Z,101777.81
2022-11-05T14:10:24.594Z,101773.13
2022-11-05T14:12:54.630Z,101790.38
2022-11-05T14:15:26.386Z,101784.63
2022-11-05T14:18:03.611Z,101777.06
2022-11-05T14:20:30.463Z,101784.09
2022-11-05T14:23:25.306Z,101778.91
2022-11-05T14:25:56.469Z,101784.13
2022-11-05T14:28:35.539Z,101781.28
2022-11-05T14:31:41.174Z,101779.19
2022-11-05T14:34:11.464Z,101775.81
2022-11-05T14:36:40.747Z,101780.00
2022-11-05T14:39:28.543Z,101764.56
2022-11-05T14:42:03.354Z,101776.06
2022-11-05T14:44:35.893Z,101772.66
2022-11-05T14:47:08.050Z,101778.69
2022-11-05T14:49:53.186Z,101771.91
2022-11-05T14:52:20.724Z,101774.00
2022-11-05T14:54:54.102Z,101772.94
2022-11-05T14:57:42.689Z,101771.66
2022-11-05T15:00:40.948Z,101769.53
2022-11-05T15:03:29.463Z,101772.94
2022-11-05T15:06:08.525Z,101775.03
2022-11-05T15:08:38.775Z,101779.50
2022-11-05T15:11:18.844Z,101775.56
2022-11-05T15:14:19.126Z,101766.41
2022-11-05T15:16:53.134Z,101770.59
2022-11-05T15:19:34.983Z,101771.13
2022-11-05T15:22:05.934Z,101763.81
2022-11-05T15:24:35.134Z,101766.66
2022-11-05T15:27:34.178Z,101764.28
2022-11-05T15:30:15.883Z,101769.00
2022-11-05T15:32:42.943Z,101764.00
2022-11-05T15:35:29.820Z,101765.31
2022-11-05T15:38:02.224Z,101753.84
2022-11-05T15:40:33.668Z,101755.16
2022-11-05T15:43:17.470Z,101754.34
2022-11-05T15:46:05.989Z,101756.19
2022-11-05T15:48:33.811Z,101753.81
2022-11-05T15:51:01.429Z,101749.91
2022-11-05T15:54:23.966Z,101752.00
2022-11-05T15:56:52.770Z,101739.19
2022-11-05T15:59:22.416Z,101740.50
2022-11-05T16:01:51.355Z,101735.53
2022-11-05T16:04:29.316Z,101747.00
2022-11-05T16:07:09.674Z,101737.88
2022-11-05T16:09:40.275Z,101742.31
2022-11-05T16:12:19.616Z,101744.41
2022-11-05T16:15:25.638Z,101738.66
2022-11-05T16:18:00.287Z,101741.75
2022-11-05T16:20:31.504Z,101735.50
2022-11-05T16:23:04.161Z,101741.75
2022-11-05T16:25:37.835Z,101736.78
2022-11-05T16:28:26.689Z,101733.13
2022-11-05T16:31:05.345Z,101729.22
2022-11-05T16:33:51.153Z,101721.13
2022-11-05T16:36:18.791Z,101720.84
2022-11-05T16:38:45.854Z,101714.84
2022-11-05T16:41:18.333Z,101712.50
2022-11-05T16:43:57.062Z,101719.81
2022-11-05T16:46:30.362Z,101726.31
2022-11-05T16:48:58.848Z,101724.75
2022-11-05T16:51:28.369Z,101729.19
2022-11-05T16:53:55.384Z,101732.03
2022-11-05T16:56:23.385Z,101733.09
2022-11-05T16:58:50.610Z,101734.91
2022-11-05T17:01:21.730Z,101730.72
2022-11-05T17:03:50.329Z,101731.00
2022-11-05T17:06:18.944Z,101731.78
2022-11-05T17:08:46.607Z,101723.69
2022-11-05T17:11:16.296Z,101732.53
2022-11-05T17:13:43.696Z,101732.78
2022-11-05T17:16:13.230Z,101724.44
2022-11-05T17:18:41.196Z,101728.09
2022-11-05T17:21:09.931Z,101733.31
2022-11-05T17:23:37.443Z,101728.09
2022-11-05T17:26:11.424Z,101724.44
2022-11-05T17:28:39.148Z,101726.28
2022-11-05T17:31:09.343Z,101732.25
2022-11-05T17:33:36.288Z,101734.88
2022-11-05T17:36:13.476Z,101724.97
2022-11-05T17:38:40.752Z,101721.31
2022-11-05T17:41:12.883Z,101725.50
2022-11-05T17:43:40.117Z,101729.13
2022-11-05T17:46:13.560Z,101742.19
2022-11-05T17:48:41.049Z,101743.75
2022-11-05T17:51:12.763Z,101742.97
2022-11-05T17:53:39.728Z,101749.75
2022-11-05T17:56:10.821Z,101755.75
2022-11-05T17:58:38.023Z,101761.78
2022-11-05T18:01:05.844Z,101755.75
2022-11-05T18:03:33.193Z,101757.34
2022-11-05T18:06:06.932Z,101758.88
2022-11-05T18:08:34.140Z,101753.66
2022-11-05T18:11:01.057Z,101755.25
2022-11-05T18:13:27.975Z,101749.25
2022-11-05T18:15:55.034Z,101754.47
2022-11-05T18:18:22.434Z,101751.34
2022-11-05T18:20:49.543Z,101736.19
2022-11-05T18:23:16.565Z,101744.25
2022-11-05T18:25:43.915Z,101746.34
2022-11-05T18:28:11.190Z,101737.97
2022-11-05T18:30:39.681Z,101726.75
2022-11-05T18:33:07.259Z,101724.41
2022-11-05T18:35:34.559Z,101728.84
2022-11-05T18:38:01.610Z,101727.53
2022-11-05T18:40:28.407Z,101730.16
2022-11-05T18:42:55.414Z,101726.47
2022-11-05T18:45:26.893Z,101724.94
2022-11-05T18:47:56.350Z,101717.09
2022-11-05T18:50:23.218Z,101706.13
2022-11-05T18:52:50.033Z,101721.78
2022-11-05T18:55:16.885Z,101719.97
2022-11-05T18:57:43.733Z,101719.19
2022-11-05T19:00:11.322Z,101711.34
2022-11-05T19:02:38.534Z,101713.97
2022-11-05T19:07:53.229Z,101699.59
2022-11-05T19:10:20.199Z,101689.97
2022-11-05T19:12:47.098Z,101681.09
2022-11-05T19:15:13.949Z,101698.56
2022-11-05T19:17:41.229Z,101692.28
2022-11-05T19:20:09.273Z,101691.28
2022-11-05T19:22:36.191Z,101671.19
2022-11-05T19:25:03.755Z,101670.66
2022-11-05T19:27:30.963Z,101652.38
2022-11-05T19:29:57.754Z,101656.84
2022-11-05T19:32:24.762Z,101654.72
2022-11-05T19:34:51.616Z,101647.41
2022-11-05T19:37:19.474Z,101644.53
2022-11-05T19:39:46.491Z,101648.19
2022-11-05T19:42:13.422Z,101650.28
2022-11-05T19:44:41.083Z,101653.38
2022-11-05T19:47:08.202Z,101651.84
2022-11-05T19:49:34.974Z,101650.00
2022-11-05T19:52:01.976Z,101649.75
2022-11-05T19:54:29.024Z,101663.81
2022-11-05T19:56:56.095Z,101654.97
2022-11-05T19:59:22.928Z,101652.88
2022-11-05T20:01:50.244Z,101661.75
2022-11-05T20:04:17.123Z,101666.47
2022-11-05T20:06:43.956Z,101662.78
2022-11-05T20:09:22.658Z,101650.28
2022-11-05T20:11:54.775Z,101649.50
2022-11-05T20:14:23.224Z,101659.16
2022-11-05T20:16:50.513Z,101662.78
2022-11-05T20:19:19.894Z,101651.84
2022-11-05T20:21:47.646Z,101646.09
2022-11-05T20:24:22.469Z,101651.31
2022-11-05T20:26:51.881Z,101647.41
2022-11-05T20:29:18.862Z,101648.94
2022-11-05T20:31:45.800Z,101640.59
2022-11-05T20:34:12.736Z,101639.81
2022-11-05T20:36:40.120Z,101645.56
2022-11-05T20:39:07.415Z,101650.78
2022-11-05T20:41:34.335Z,101644.78
2022-11-05T20:44:01.646Z,101647.41
2022-11-05T20:46:28.686Z,101647.63
2022-11-05T20:48:56.128Z,101642.97
2022-11-05T20:51:24.687Z,101638.78
2022-11-05T20:54:00.252Z,101642.44
2022-11-05T20:56:29.855Z,101639.28
2022-11-05T20:58:58.924Z,101638.75
2022-11-05T21:01:27.848Z,101646.84
2022-11-05T21:03:55.213Z,101648.38
2022-11-05T21:06:22.736Z,101647.06
2022-11-05T21:08:51.312Z,101659.06
2022-11-05T21:11:19.956Z,101657.75
2022-11-05T21:13:47.190Z,101653.03
2022-11-05T21:16:18.512Z,101657.97
2022-11-05T21:18:46.817Z,101640.75
2022-11-05T21:21:17.767Z,101650.38
2022-11-05T21:23:44.678Z,101649.31
2022-11-05T21:26:14.007Z,101647.00
2022-11-05T21:28:42.052Z,101647.00
2022-11-05T21:31:09.381Z,101643.84
2022-11-05T21:33:36.738Z,101646.19
2022-11-05T21:36:12.712Z,101649.56
2022-11-05T21:38:40.717Z,101645.66
2022-11-05T21:41:08.828Z,101651.38
2022-11-05T21:43:38.002Z,101643.84
2022-11-05T21:46:05.256Z,101642.56
2022-11-05T21:48:32.898Z,101631.88
2022-11-05T21:51:18.641Z,101638.66
2022-11-05T21:54:04.285Z,101636.81
2022-11-05T21:56:50.873Z,101631.34
2022-11-05T21:59:41.549Z,101622.75
2022-11-05T22:02:11.467Z,101623.53
2022-11-05T22:04:43.927Z,101615.47
2022-11-05T22:07:15.463Z,101613.66
2022-11-05T22:09:42.353Z,101620.69
2022-11-05T22:12:09.701Z,101615.22
2022-11-05T22:14:36.800Z,101623.03
2022-11-05T22:17:04.149Z,101626.44
2022-11-05T22:19:31.757Z,101617.84
2022-11-05T22:21:58.797Z,101616.00
2022-11-05T22:24:28.259Z,101618.59
2022-11-05T22:26:55.222Z,101605.03
2022-11-05T22:29:22.137Z,101605.81
2022-11-05T22:31:49.183Z,101597.75
2022-11-05T22:34:16.080Z,101582.63
2022-11-05T22:36:43.102Z,101576.09
2022-11-05T22:39:12.101Z,101580.28
2022-11-05T22:41:39.525Z,101586.81
2022-11-05T22:44:06.963Z,101598.25
2022-11-05T22:46:34.246Z,101590.19
2022-11-05T22:49:01.299Z,101593.31
2022-11-05T22:51:33.825Z,101588.91
2022-11-05T22:54:02.247Z,101594.38
2022-11-05T22:56:32.234Z,101597.50
2022-11-05T22:59:00.098Z,101591.75
2022-11-05T23:01:27.880Z,101587.34
2022-11-05T23:03:56.397Z,101590.72
2022-11-05T23:06:44.112Z,101589.69
2022-11-05T23:09:35.607Z,101578.22
2022-11-05T23:12:04.789Z,101578.75
2022-11-05T23:14:31.690Z,101574.56
2022-11-05T23:17:17.007Z,101569.13
2022-11-05T23:20:02.618Z,101559.47
2022-11-05T23:22:49.925Z,101561.28
2022-11-05T23:25:20.253Z,101560.50
2022-11-05T23:27:49.426Z,101561.00
2022-11-05T23:30:21.958Z,101569.84
2022-11-05T23:32:49.543Z,101553.69
2022-11-05T23:35:17.339Z,101549.00
2022-11-05T23:38:02.737Z,101554.47
2022-11-05T23:40:52.334Z,101548.47
2022-11-05T23:43:38.052Z,101568.81
2022-11-05T23:46:23.756Z,101569.31
2022-11-05T23:48:50.868Z,101568.53
2022-11-05T23:51:18.106Z,101568.25
2022-11-05T23:53:44.953Z,101563.03
2022-11-05T23:56:14.729Z,101554.19
2022-11-05T23:58:42.535Z,101548.97
